AirNav   TITAN Aviation Fuels
 
 1478 users online  

48SN Lifeteam 20 Heliport
Wichita, Kansas, USA

GOING TO WICHITA?


FAA INFORMATION EFFECTIVE 15 JULY 2021

Location

FAA Identifier: 48SN
Lat/Long: 37-44-51.1500N 097-13-15.7300W
37-44.852500N 097-13.262167W
37.7475417,-97.2210361
(estimated)
Elevation: 1420 ft. / 433 m (estimated)
Variation: 06E (2000)
Time zone: UTC -5 (UTC -6 during Standard Time)
Zip code: 67226

Heliport Operations

Heliport use: Private use. Permission required prior to landing
Activation date: 01/2003
Control tower: no
ARTCC: KANSAS CITY CENTER
FSS: WICHITA FLIGHT SERVICE STATION
Attendance: UNATNDD
Segmented circle: no

Heliport Communications

WX ASOS at AAO (0.0 nm NW): 134.025 (316-636-2541)
WX AWOS-3PT at BEC (3 nm S): 119.45 (316-515-7116)
WX AWOS-3 at 1K1 (5 nm E): 118.3 (316-530-6004)
WX AWOS-3PT at 3AU (8 nm SE): 124.175 (316-733-6696)
WX ASOS at ICT (12 nm SW): PHONE 316-945-8022
WX AWOS-3PT at EWK (19 nm N): 123.875 (316-283-8789)
WX AWOS-3P at EQA (19 nm E): 120.875 (316-322-8095)

Nearby radio navigation aids

VOR radial/distance  VOR name  Freq  Var
ICTr083/17.2WICHITA VORTAC113.8007E
HUTr110/36.9HUTCHINSON VOR/DME116.8004E

Heliport Services

Runway Information

Helipad H1

Dimensions: 30 x 30 ft. / 9 x 9 m
Surface: concrete
Traffic pattern: leftleft

Heliport Ownership and Management from official FAA records

Ownership: Privately-owned
Owner: RUDY CONSTRUCTION INC
PO BOX 14575
OKLAHOMA CITY, OK 73121
Phone 405-478-0096
Manager: DAVID WALKER
PO BOX 14575
OKLAHOMA CITY, OK 73121
Phone 405-478-0096

Heliport Operational Statistics

Aircraft based on the field: 1
Helicopters: 1
    

Additional Remarks

OWNER DESIRES ARPT NOT BE CHARTED.
FOR CD CTC WICHITA APCH AT 316-350-1520.

Instrument Procedures

There are no published instrument procedures at 48SN.

Some nearby airports with instrument procedures:

KAAO - Colonel James Jabara Airport (0 nm NW)
KBEC - Beech Factory Airport (3 nm S)
1K1 - Lloyd Stearman Field Airport (5 nm E)
KCEA - Cessna Aircraft Field Airport (6 nm S)
KIAB - Mc Connell Air Force Base (8 nm S)
3AU - Augusta Municipal Airport (8 nm SE)
KICT - Wichita Dwight D Eisenhower National Airport (12 nm SW)
KEWK - Newton City/County Airport (19 nm N)
KEQA - El Dorado/Capt Jack Thomas Memorial Airport (19 nm E)
 
Loc | Ops | Rwys | IFR | FBO | Links
Com | Nav | Svcs | Stats | Notes
Area around 48SN (Lifeteam 20 Heliport)
 
Road maps at: MapQuest Bing Google
 
Aerial photo
No photo
 
Sectional chart

 
Airport distance calculator
Flying to Lifeteam 20 Heliport? Find the distance to fly.

From to 48SN

Sunrise and sunset
Times for 05-Aug-2021
 Local
(UTC-5)
 Zulu
(UTC)
Morning civil twilight06:0811:08
Sunrise06:3711:37
Sunset20:3301:33
Evening civil twilight21:0202:02

Current date and time
Zulu (UTC)  05-Aug-2021 14:23:10
Local (UTC-5)  05-Aug-2021 09:23:10
 
METAR
KAAO 051354Z AUTO 21009KT 10SM CLR 24/16 A3008 RMK AO2 SLP174 T02440161
KBEC 
3nm S 
051355Z AUTO 22007KT 10SM CLR 24/16 A3009 RMK AO2 T02350162
K1K1 
5nm E 
051355Z AUTO 22007KT 10SM CLR 23/17 A3009 RMK AO2 T02260165
KIAB 
8nm S 
051356Z AUTO 23009KT 10SM FEW200 23/17 A3009 RMK AO2 SLP181 T02310166 $
K3AU 
8nm SE 
051350Z AUTO 21005KT 10SM CLR 23/15 A3009 RMK AO2
KICT 
12nm SW 
051353Z 19007KT 9SM FEW090 SCT110 BKN160 24/18 A3008 RMK AO2 SLP172 T02390178
KEWK 
17nm N 
051356Z AUTO 21011KT 10SM CLR A3009 RMK AO2 SLPNO FZRANO $
KEQA 
19nm E 
051355Z AUTO 20007KT 10SM CLR 24/17 A3009 RMK AO2
TAF
KIAB 
8nm S 
051000Z 0510/0616 18012KT 9999 SCT080 BKN180 QNH3004INS BECMG 0520/0521 17010KT 9999 FEW120 QNH2995INS BECMG 0614/0615 21015KT 9999 SKC QNH2996INS TX31/0520Z TN19/0610Z
KICT 
12nm SW 
051126Z 0512/0612 18005KT P6SM SCT030 BKN100 FM052000 18010KT P6SM FEW060 SCT200 FM060400 16009KT P6SM FEW250
NOTAMs
Click for the latest NOTAMs
NOTAMs are issued by the DoD/FAA and will open in a separate window not controlled by AirNav.

 

 
 

Would you like to see your business listed on this page?

 If your business provides an interesting product or service to pilots, flight crews, aircraft, or users of the Lifeteam 20 Heliport, you should consider listing it here.  To start the listing process, click on the button below
 
Add a business
 

Other Pages about Lifeteam 20 Heliport

Update a link
 
Copyright © AirNav, LLC. All rights reserved. Privacy Policy  Contact